createdAt,value
2022-12-24T00:12:17.882Z,22.00
2022-12-24T00:27:19.339Z,22.00
2022-12-24T00:42:20.797Z,22.00
2022-12-24T00:57:22.269Z,21.90
2022-12-24T01:12:23.748Z,21.90
2022-12-24T01:27:25.209Z,21.90
2022-12-24T01:42:26.676Z,21.90
2022-12-24T01:57:28.138Z,21.90
2022-12-24T02:12:29.915Z,21.80
2022-12-24T02:27:31.388Z,21.80
2022-12-24T02:42:32.870Z,21.80
2022-12-24T02:57:34.348Z,21.80
2022-12-24T03:12:35.849Z,21.80
2022-12-24T03:27:37.332Z,21.70
2022-12-24T03:42:38.796Z,21.70
2022-12-24T03:57:40.283Z,21.70
2022-12-24T04:12:41.734Z,21.70
2022-12-24T04:27:43.214Z,21.80
2022-12-24T04:42:44.704Z,21.70
2022-12-24T04:57:51.164Z,21.70
2022-12-24T05:12:54.295Z,21.70
2022-12-24T05:27:55.756Z,21.70
2022-12-24T05:42:57.207Z,21.70
2022-12-24T05:57:58.673Z,21.70
2022-12-24T06:13:00.144Z,21.70
2022-12-24T06:28:01.605Z,21.70
2022-12-24T06:43:03.087Z,21.70
2022-12-24T06:58:04.555Z,21.70
2022-12-24T07:13:06.025Z,21.70
2022-12-24T07:28:07.493Z,21.70
2022-12-24T07:43:08.965Z,21.70
2022-12-24T07:58:10.452Z,21.70
2022-12-24T08:13:11.932Z,21.60
2022-12-24T08:28:13.411Z,21.70
2022-12-24T08:43:14.901Z,21.70
2022-12-24T08:58:16.382Z,21.70
2022-12-24T09:13:17.848Z,21.80
2022-12-24T09:28:19.325Z,21.80
2022-12-24T09:43:20.804Z,21.80
2022-12-24T09:58:22.273Z,21.90
2022-12-24T10:13:23.720Z,21.90
2022-12-24T10:28:25.200Z,21.90
2022-12-24T10:43:26.664Z,22.10
2022-12-24T10:58:28.116Z,22.10
2022-12-24T11:13:38.736Z,22.50
2022-12-24T11:28:40.668Z,23.60
2022-12-24T11:43:42.147Z,24.00
2022-12-24T11:58:43.663Z,23.80
2022-12-24T12:13:45.113Z,23.70
2022-12-24T12:28:48.404Z,23.50
2022-12-24T12:43:50.993Z,23.70
2022-12-24T12:58:52.439Z,24.20
2022-12-24T13:13:53.941Z,24.10
2022-12-24T13:28:55.386Z,25.60
2022-12-24T13:43:56.880Z,25.70
2022-12-24T13:58:58.421Z,25.20
2022-12-24T14:13:59.890Z,24.90
2022-12-24T14:29:01.371Z,24.60
2022-12-24T14:44:03.972Z,24.40
2022-12-24T14:59:05.431Z,24.20
2022-12-24T15:29:32.753Z,23.60
2022-12-24T15:59:59.570Z,23.40
2022-12-24T16:15:02.956Z,23.20
2022-12-24T16:45:22.047Z,23.00
2022-12-24T17:00:23.527Z,23.00
2022-12-24T17:15:25.002Z,22.90
2022-12-24T17:30:26.490Z,22.80
2022-12-24T17:45:28.012Z,22.80
2022-12-24T18:00:32.939Z,22.70
2022-12-24T18:15:34.949Z,22.60
2022-12-24T18:30:36.420Z,22.60
2022-12-24T18:45:37.901Z,22.50
2022-12-24T19:00:39.407Z,22.50
2022-12-24T19:15:40.962Z,22.40
2022-12-24T19:30:42.449Z,22.40
2022-12-24T19:45:43.963Z,22.30
2022-12-24T20:00:45.517Z,22.30
2022-12-24T20:15:47.010Z,22.30
2022-12-24T20:30:48.629Z,22.20
2022-12-24T20:45:50.137Z,22.20
2022-12-24T21:00:51.658Z,22.20
2022-12-24T21:15:53.193Z,22.20
2022-12-24T21:30:55.111Z,22.20
2022-12-24T21:45:56.836Z,22.20
2022-12-24T22:00:58.388Z,22.10
2022-12-24T22:15:59.866Z,22.10
2022-12-24T22:46:17.863Z,22.10
2022-12-24T23:01:19.429Z,22.10
2022-12-24T23:16:20.946Z,22.10
2022-12-24T23:31:22.547Z,22.10
2022-12-24T23:46:24.110Z,22.30
